Time;durP1;ratioP1;P1;durP2;ratioP2;P2;SDS_P1;SDS_P2;PMS_P1;PMS_P2;Temp;Humidity;BMP_temperature;BMP_pressure;BME280_temperature;BME280_humidity;BME280_pressure;Samples;Min_cycle;Max_cycle;Signal;HPM_P1;HPM_P2
2021/01/19 00:01:20;;;;;;;53.77;32.13;;;;;;;-1.65;89.11;99867.86;1783889;80;25317;-79
2021/01/19 00:03:47;;;;;;;56.50;33.70;;;;;;;-1.62;88.99;99867.80;1787436;79;25314;-79
2021/01/19 00:06:14;;;;;;;44.83;28.13;;;;;;;-1.57;89.15;99864.20;1786995;80;25289;-78
2021/01/19 00:08:41;;;;;;;64.27;35.60;;;;;;;-1.48;89.27;99862.30;1786882;80;25304;-79
2021/01/19 00:11:07;;;;;;;119.90;56.93;;;;;;;-1.42;89.22;99862.16;1787003;80;25617;-79
2021/01/19 00:13:34;;;;;;;59.80;32.60;;;;;;;-1.36;89.50;99859.40;1785486;79;25254;-78
2021/01/19 00:16:01;;;;;;;43.67;24.73;;;;;;;-1.30;89.43;99856.67;1783081;79;25135;-77
2021/01/19 00:18:28;;;;;;;35.13;21.30;;;;;;;-1.22;89.87;99854.75;1783373;79;25206;-78
2021/01/19 00:20:54;;;;;;;47.63;25.93;;;;;;;-1.15;89.71;99856.28;1784538;80;25364;-78
2021/01/19 00:23:21;;;;;;;45.60;25.03;;;;;;;-1.05;89.81;99850.44;1786980;80;25210;-78
2021/01/19 00:25:48;;;;;;;38.97;22.67;;;;;;;-0.97;89.95;99845.92;1787020;79;25721;-79
2021/01/19 00:28:14;;;;;;;36.30;21.40;;;;;;;-0.89;90.17;99849.57;1786868;79;25281;-79
2021/01/19 00:30:42;;;;;;;40.10;23.97;;;;;;;-0.84;90.31;99850.32;1785598;79;25305;-78
2021/01/19 00:33:10;;;;;;;37.67;22.83;;;;;;;-0.78;90.28;99842.84;1784487;79;25219;-79
2021/01/19 00:35:37;;;;;;;41.97;24.70;;;;;;;-0.72;90.56;99833.64;1783352;80;25311;-79
2021/01/19 00:38:04;;;;;;;33.37;20.47;;;;;;;-0.65;90.60;99838.19;1784465;80;25320;-79
2021/01/19 00:40:30;;;;;;;31.57;20.30;;;;;;;-0.61;90.64;99839.33;1784036;79;25725;-79
2021/01/19 00:42:57;;;;;;;40.77;22.53;;;;;;;-0.54;90.88;99834.00;1784288;80;25138;-79
2021/01/19 00:45:24;;;;;;;35.53;21.60;;;;;;;-0.49;90.83;99837.29;1784311;79;25685;-79
2021/01/19 00:47:51;;;;;;;32.63;19.57;;;;;;;-0.42;91.13;99839.66;1752417;80;25203;-80
2021/01/19 00:50:18;;;;;;;44.33;24.93;;;;;;;-0.36;91.14;99830.03;1784774;79;25210;-79
2021/01/19 00:52:45;;;;;;;32.03;18.97;;;;;;;-0.33;91.22;99832.53;1783656;79;25779;-79
2021/01/19 00:55:13;;;;;;;33.53;19.90;;;;;;;-0.29;91.23;99832.38;1784022;79;25163;-80
2021/01/19 00:57:46;;;;;;;37.80;20.73;;;;;;;-0.25;91.54;99827.95;1755510;80;25237;-80
2021/01/19 01:00:15;;;;;;;31.93;18.77;;;;;;;-0.22;91.73;99823.57;1786831;80;25285;-80
2021/01/19 01:02:41;;;;;;;30.87;20.03;;;;;;;-0.20;91.70;99824.82;1785552;79;25221;-79
2021/01/19 01:05:09;;;;;;;28.97;19.60;;;;;;;-0.17;91.94;99825.99;1783174;79;25703;-80
2021/01/19 01:10:17;;;;;;;28.83;17.77;;;;;;;-0.09;91.84;99823.19;1818362;78;26443;-79
2021/01/19 01:12:44;;;;;;;24.53;17.23;;;;;;;-0.09;91.87;99823.19;1789314;79;25700;-78
2021/01/19 01:15:13;;;;;;;27.33;17.53;;;;;;;-0.06;91.88;99822.64;1789185;79;25134;-81
2021/01/19 01:17:40;;;;;;;25.43;16.40;;;;;;;0.00;92.10;99822.92;1789603;80;25317;-79
2021/01/19 01:20:10;;;;;;;26.20;17.13;;;;;;;0.03;92.27;99818.08;1789523;79;25256;-79
2021/01/19 01:22:45;;;;;;;22.83;15.40;;;;;;;0.10;92.56;99823.45;1818323;78;26935;-78
2021/01/19 01:25:15;;;;;;;24.73;15.80;;;;;;;0.03;92.58;99816.33;1789240;79;25297;-79
2021/01/19 01:27:43;;;;;;;18.67;13.10;;;;;;;0.09;92.71;99816.61;1789508;80;25296;-81
2021/01/19 01:30:11;;;;;;;19.33;13.73;;;;;;;0.09;92.76;99807.09;1789010;80;25273;-81
2021/01/19 01:32:53;;;;;;;18.50;13.23;;;;;;;0.16;93.05;99814.22;1789389;80;25336;-81
2021/01/19 01:35:21;;;;;;;17.43;12.70;;;;;;;0.15;93.23;99810.79;1789418;80;25759;-79
2021/01/19 01:37:53;;;;;;;18.73;13.10;;;;;;;0.15;93.26;99806.91;1789467;79;25764;-81
2021/01/19 01:40:28;;;;;;;18.27;12.43;;;;;;;0.25;93.33;99805.31;1844630;76;26793;-79
2021/01/19 01:42:56;;;;;;;15.33;10.93;;;;;;;0.22;93.45;99798.51;1805549;78;25649;-79
2021/01/19 01:45:26;;;;;;;15.90;11.30;;;;;;;0.24;93.45;99795.41;1778794;78;25144;-79
2021/01/19 01:47:54;;;;;;;15.23;10.73;;;;;;;0.27;93.49;99800.50;1761057;80;25280;-79
2021/01/19 01:50:21;;;;;;;15.77;11.43;;;;;;;0.28;93.45;99799.58;1776751;79;25228;-79
2021/01/19 01:52:48;;;;;;;15.67;10.63;;;;;;;0.30;93.44;99800.41;1752847;81;25691;-79
2021/01/19 01:55:15;;;;;;;16.10;11.07;;;;;;;0.32;93.60;99797.31;1752978;81;25291;-79
2021/01/19 01:57:42;;;;;;;18.63;12.07;;;;;;;0.32;93.53;99794.72;1752920;80;25287;-79
2021/01/19 02:00:11;;;;;;;14.20;10.10;;;;;;;0.35;93.53;99797.64;1752910;81;25132;-79
2021/01/19 02:02:54;;;;;;;15.53;10.80;;;;;;;0.40;93.69;99792.32;1752897;81;25216;-79
2021/01/19 02:05:29;;;;;;;14.33;9.67;;;;;;;0.52;93.78;99784.13;1818249;78;27425;-78
2021/01/19 02:08:26;;;;;;;18.33;11.47;;;;;;;0.40;93.99;99782.80;1789473;79;25608;-77
2021/01/19 02:11:10;;;;;;;16.00;10.73;;;;;;;0.44;93.78;99784.41;1789122;79;25325;-78
2021/01/19 02:13:55;;;;;;;14.70;10.23;;;;;;;0.47;93.90;99781.73;1789384;79;25684;-79
2021/01/19 02:16:39;;;;;;;14.97;10.83;;;;;;;0.45;93.86;99782.66;1789178;79;25380;-79
2021/01/19 02:19:41;;;;;;;18.13;11.97;;;;;;;0.46;93.96;99783.07;1789559;79;25660;-79
2021/01/19 02:22:52;;;;;;;18.43;12.60;;;;;;;0.43;93.99;99781.41;1789455;80;25103;-78
2021/01/19 02:25:46;;;;;;;18.47;11.80;;;;;;;0.49;93.98;99784.27;1789235;80;25780;-78
2021/01/19 02:28:21;;;;;;;16.70;11.73;;;;;;;0.47;93.92;99776.55;1789478;79;25280;-79
2021/01/19 02:34:10;;;;;;;18.03;12.33;;;;;;;0.59;94.28;99770.11;1811587;78;27022;-78
2021/01/19 02:37:11;;;;;;;21.50;13.20;;;;;;;0.51;94.09;99782.47;1795186;79;25325;-78
2021/01/19 02:39:51;;;;;;;15.50;11.10;;;;;;;0.48;93.98;99774.34;1780486;80;25284;-78
2021/01/19 02:42:22;;;;;;;14.43;10.50;;;;;;;0.55;94.17;99781.45;1788692;80;25735;-78
2021/01/19 02:44:50;;;;;;;15.33;11.07;;;;;;;0.52;94.03;99777.23;1788994;80;25693;-78
2021/01/19 02:47:17;;;;;;;14.80;10.37;;;;;;;0.58;94.23;99769.70;1788979;80;25296;-78
2021/01/19 02:49:44;;;;;;;13.57;10.73;;;;;;;0.55;94.18;99783.61;1788328;80;25210;-78
2021/01/19 02:52:15;;;;;;;15.40;10.60;;;;;;;0.58;94.18;99777.47;1766473;80;25749;-78
2021/01/19 02:54:44;;;;;;;14.87;10.30;;;;;;;0.59;94.23;99772.70;1753282;80;25225;-78
2021/01/19 02:57:57;;;;;;;17.27;11.13;;;;;;;0.56;94.13;99777.97;1745600;80;25217;-78
2021/01/19 03:01:05;;;;;;;17.03;11.10;;;;;;;0.55;94.16;99771.96;1745604;82;25719;-78
2021/01/19 03:03:37;;;;;;;15.47;10.37;;;;;;;0.57;94.23;99772.34;1745505;80;25212;-78
2021/01/19 03:06:16;;;;;;;19.67;11.83;;;;;;;0.59;94.30;99770.11;1745524;81;25213;-77
2021/01/19 03:08:43;;;;;;;17.00;10.60;;;;;;;0.57;94.37;99774.50;1745415;80;25301;-78
2021/01/19 03:11:15;;;;;;;18.40;13.23;;;;;;;0.53;94.44;99781.50;1748394;80;25325;-78
2021/01/19 03:13:46;;;;;;;21.30;13.93;;;;;;;0.55;94.46;99774.98;1759128;80;25217;-78
2021/01/19 03:16:23;;;;;;;18.03;13.07;;;;;;;0.61;94.61;99770.06;1818421;78;26881;-79
2021/01/19 03:18:51;;;;;;;17.87;12.43;;;;;;;0.55;94.48;99772.39;1789473;80;25269;-78
2021/01/19 03:21:17;;;;;;;17.30;12.20;;;;;;;0.55;94.51;99777.56;1789585;80;25336;-78
2021/01/19 03:23:44;;;;;;;15.33;10.87;;;;;;;0.61;94.66;99779.12;1789371;79;25292;-78
2021/01/19 03:26:11;;;;;;;12.93;10.60;;;;;;;0.55;94.64;99773.69;1788844;80;25332;-78
2021/01/19 03:28:37;;;;;;;15.47;10.87;;;;;;;0.61;94.72;99779.95;1789466;79;25684;-79
2021/01/19 03:31:04;;;;;;;16.57;11.00;;;;;;;0.57;94.57;99778.38;1789119;79;25209;-78
2021/01/19 03:33:31;;;;;;;14.40;9.70;;;;;;;0.59;94.77;99774.42;1789444;79;25324;-78
2021/01/19 03:35:58;;;;;;;14.37;9.77;;;;;;;0.60;94.75;99778.71;1789099;79;25389;-79
2021/01/19 03:38:25;;;;;;;14.60;10.33;;;;;;;0.60;94.78;99776.12;1738402;81;25303;-79
2021/01/19 03:40:51;;;;;;;15.80;10.57;;;;;;;0.59;94.83;99775.29;1760990;81;25699;-78
2021/01/19 03:43:18;;;;;;;17.60;11.23;;;;;;;0.58;94.79;99774.05;1760835;81;25342;-79
2021/01/19 03:45:45;;;;;;;21.60;12.70;;;;;;;0.60;94.89;99779.55;1761113;81;25299;-79
2021/01/19 03:48:12;;;;;;;20.30;12.20;;;;;;;0.57;95.04;99777.52;1760706;81;25140;-79
2021/01/19 03:50:38;;;;;;;18.70;12.07;;;;;;;0.59;94.94;99773.13;1748335;81;25295;-78
2021/01/19 03:53:05;;;;;;;15.07;9.77;;;;;;;0.63;94.98;99781.20;1754122;81;25636;-79
2021/01/19 03:55:32;;;;;;;13.63;8.80;;;;;;;0.64;94.99;99775.97;1754107;81;25200;-80
2021/01/19 03:57:58;;;;;;;10.30;8.07;;;;;;;0.70;95.14;99769.73;1753704;81;25283;-78
2021/01/19 04:00:25;;;;;;;13.97;9.70;;;;;;;0.66;95.09;99763.81;1754061;81;25754;-78
2021/01/19 04:02:52;;;;;;;11.23;8.73;;;;;;;0.70;95.15;99764.13;1754214;81;25288;-79
2021/01/19 04:05:19;;;;;;;10.20;8.03;;;;;;;0.71;95.19;99775.31;1754238;81;25329;-79
2021/01/19 04:07:45;;;;;;;9.97;7.90;;;;;;;0.73;95.21;99774.80;1754167;81;25695;-81
2021/01/19 04:10:14;;;;;;;8.67;6.60;;;;;;;0.72;95.15;99772.67;1754238;81;25292;-76
2021/01/19 04:12:41;;;;;;;8.23;6.23;;;;;;;0.78;95.25;99770.77;1754139;81;25249;-77
2021/01/19 04:15:09;;;;;;;7.57;5.70;;;;;;;0.79;95.27;99758.20;1754096;81;25217;-80
2021/01/19 04:17:38;;;;;;;5.53;4.97;;;;;;;0.83;95.22;99767.11;1726831;81;25331;-78
2021/01/19 04:20:13;;;;;;;7.33;5.13;;;;;;;0.98;95.38;99757.95;1818446;78;26736;-78
2021/01/19 04:22:40;;;;;;;7.37;4.73;;;;;;;0.89;95.30;99757.00;1789192;80;25260;-77
2021/01/19 04:25:07;;;;;;;6.17;4.97;;;;;;;0.90;95.15;99754.33;1757681;80;25694;-79
2021/01/19 04:27:33;;;;;;;6.93;5.03;;;;;;;0.93;95.17;99760.70;1760924;81;25248;-79
2021/01/19 04:30:04;;;;;;;6.77;4.90;;;;;;;0.93;95.17;99757.27;1761287;81;25698;-79
2021/01/19 04:32:29;;;;;;;5.27;4.40;;;;;;;0.98;95.06;99764.88;1760718;81;25295;-78
2021/01/19 04:34:56;;;;;;;5.80;4.53;;;;;;;1.02;95.04;99758.25;1761248;81;25789;-77
2021/01/19 04:37:22;;;;;;;5.90;5.00;;;;;;;1.06;94.97;99757.69;1761184;80;25290;-77
2021/01/19 04:39:49;;;;;;;7.03;5.33;;;;;;;1.00;94.85;99754.84;1788731;79;25281;-77
2021/01/19 04:42:18;;;;;;;5.83;4.57;;;;;;;1.09;94.80;99751.94;1757314;80;25348;-77
2021/01/19 04:44:45;;;;;;;7.57;5.00;;;;;;;1.06;94.73;99758.52;1761250;81;25227;-76
2021/01/19 04:47:12;;;;;;;10.50;8.03;;;;;;;1.09;94.79;99750.64;1761315;81;25707;-76
2021/01/19 04:49:39;;;;;;;14.07;10.77;;;;;;;1.06;94.73;99765.45;1760546;81;25141;-76
2021/01/19 04:52:05;;;;;;;12.30;9.70;;;;;;;1.05;94.77;99768.47;1754058;81;25766;-77
2021/01/19 04:54:43;;;;;;;6.37;5.37;;;;;;;1.06;94.77;99768.88;1754222;81;25228;-77
2021/01/19 04:57:16;;;;;;;5.67;4.70;;;;;;;1.05;94.83;99772.81;1753898;81;25371;-77
2021/01/19 04:59:42;;;;;;;4.77;4.27;;;;;;;1.07;94.86;99767.99;1754235;81;25299;-77
2021/01/19 05:02:36;;;;;;;5.60;4.87;;;;;;;1.16;94.55;99769.83;1712008;81;25643;-76
2021/01/19 05:05:25;;;;;;;8.10;6.03;;;;;;;1.15;94.72;99762.52;1818284;78;27051;-76
2021/01/19 05:08:19;;;;;;;5.83;4.03;;;;;;;1.12;94.43;99769.09;1741131;80;25760;-76
2021/01/19 05:11:00;;;;;;;7.87;5.23;;;;;;;1.13;94.46;99764.78;1756666;81;25280;-76
2021/01/19 05:13:44;;;;;;;7.67;5.73;;;;;;;1.10;94.49;99761.38;1755994;81;25141;-76
2021/01/19 05:16:30;;;;;;;6.27;5.37;;;;;;;1.11;94.47;99763.08;1876445;76;26820;-75
2021/01/19 05:18:57;;;;;;;7.30;5.47;;;;;;;1.04;94.83;99753.85;1826558;78;25298;-76
2021/01/19 05:21:24;;;;;;;6.43;5.50;;;;;;;1.02;94.71;99762.13;1835666;77;25307;-78
2021/01/19 05:23:50;;;;;;;7.07;5.40;;;;;;;1.00;94.79;99757.44;1826998;77;25222;-77
2021/01/19 05:26:18;;;;;;;7.47;5.57;;;;;;;1.00;94.81;99758.73;1857564;77;25612;-77
2021/01/19 05:28:53;;;;;;;8.43;5.77;;;;;;;0.96;94.91;99754.58;1841446;77;25263;-76
2021/01/19 05:31:22;;;;;;;7.53;6.43;;;;;;;1.00;94.92;99754.01;1794650;78;25184;-76
2021/01/19 05:34:08;;;;;;;6.27;5.00;;;;;;;0.99;94.90;99758.36;1826471;77;25204;-76
2021/01/19 05:36:45;;;;;;;5.80;4.60;;;;;;;0.96;95.01;99748.09;1847061;77;25193;-76
2021/01/19 05:39:18;;;;;;;6.67;5.37;;;;;;;0.96;95.13;99762.80;1827111;77;25208;-76
2021/01/19 05:41:54;;;;;;;7.10;5.00;;;;;;;1.01;95.21;99751.83;1914380;72;27439;-76
2021/01/19 05:44:32;;;;;;;6.33;5.30;;;;;;;0.93;95.15;99759.86;1939055;73;25699;-76
2021/01/19 05:47:02;;;;;;;8.03;6.20;;;;;;;0.91;95.34;99761.66;1939826;73;25681;-76
2021/01/19 05:49:41;;;;;;;8.57;6.13;;;;;;;0.93;95.31;99761.16;1938993;74;25254;-76
2021/01/19 05:52:15;;;;;;;6.77;5.80;;;;;;;0.91;95.41;99762.50;1886848;75;25283;-75
2021/01/19 05:54:47;;;;;;;10.73;7.47;;;;;;;0.92;95.47;99759.45;1871817;75;25387;-75
2021/01/19 05:57:16;;;;;;;18.13;10.93;;;;;;;0.90;95.61;99755.62;1881654;75;25282;-77
2021/01/19 05:59:57;;;;;;;12.43;8.90;;;;;;;0.91;95.63;99762.96;1865295;76;25183;-77
2021/01/19 06:02:39;;;;;;;11.97;8.10;;;;;;;0.91;95.67;99770.27;1865274;77;25306;-77
2021/01/19 06:05:16;;;;;;;13.80;10.10;;;;;;;0.89;95.73;99766.90;1865275;76;25696;-77
2021/01/19 06:07:46;;;;;;;11.53;9.07;;;;;;;0.88;95.80;99765.66;1879744;75;25172;-76
2021/01/19 06:10:19;;;;;;;17.07;12.10;;;;;;;0.95;95.78;99765.82;1872261;75;25188;-77
2021/01/19 06:12:46;;;;;;;11.23;8.13;;;;;;;0.92;95.82;99764.63;1827327;78;25281;-77
2021/01/19 06:15:13;;;;;;;14.90;10.60;;;;;;;0.89;95.75;99767.36;1827523;78;25830;-77
2021/01/19 06:17:40;;;;;;;19.37;11.83;;;;;;;0.88;95.83;99766.95;1828650;78;25659;-77
2021/01/19 06:20:07;;;;;;;14.57;9.77;;;;;;;0.88;95.86;99766.95;1827141;78;25206;-77
2021/01/19 06:22:34;;;;;;;17.97;12.03;;;;;;;0.88;95.85;99766.95;1848843;76;25155;-77
2021/01/19 06:25:03;;;;;;;19.17;12.73;;;;;;;0.90;95.90;99762.55;1838463;77;25508;-77
2021/01/19 06:27:32;;;;;;;23.37;16.60;;;;;;;0.93;96.02;99762.45;1827279;77;25126;-78
2021/01/19 06:30:07;;;;;;;23.67;15.20;;;;;;;0.94;96.00;99771.92;1836069;77;25237;-77
2021/01/19 06:32:48;;;;;;;21.63;14.73;;;;;;;0.92;95.95;99769.81;1794015;79;25279;-77
2021/01/19 06:35:22;;;;;;;24.93;15.53;;;;;;;0.95;95.93;99763.70;1821234;77;25169;-78
2021/01/19 06:37:56;;;;;;;27.27;17.40;;;;;;;1.01;95.91;99757.00;1889432;76;26878;-77
2021/01/19 06:40:25;;;;;;;31.10;21.57;;;;;;;0.92;95.86;99759.45;1792399;77;25743;-78
2021/01/19 06:43:02;;;;;;;29.10;19.00;;;;;;;0.94;95.91;99757.68;1860167;77;25249;-78
2021/01/19 06:45:32;;;;;;;42.40;29.60;;;;;;;0.94;95.95;99757.68;1849742;77;25141;-76
2021/01/19 06:48:02;;;;;;;49.00;32.17;;;;;;;0.95;95.94;99751.58;1837443;77;25279;-77
2021/01/19 06:50:33;;;;;;;41.70;27.20;;;;;;;0.95;95.86;99750.74;1824689;77;25314;-77
2021/01/19 06:53:18;;;;;;;47.47;31.40;;;;;;;0.97;95.97;99756.70;1793900;80;25325;-79
2021/01/19 06:56:05;;;;;;;46.70;29.93;;;;;;;0.99;95.89;99757.06;1793532;80;25282;-77
2021/01/19 06:58:53;;;;;;;31.80;20.03;;;;;;;1.00;95.90;99753.55;1805233;78;25337;-77
2021/01/19 07:01:25;;;;;;;44.13;28.90;;;;;;;1.04;95.93;99755.58;1826439;78;25315;-77
2021/01/19 07:04:14;;;;;;;40.83;23.33;;;;;;;1.07;95.89;99752.45;1822397;78;25387;-76
2021/01/19 07:07:10;;;;;;;40.00;23.73;;;;;;;1.09;95.85;99751.94;1776881;80;25096;-77
2021/01/19 07:10:05;;;;;;;30.07;18.87;;;;;;;1.15;95.85;99744.84;1794095;80;25290;-77
2021/01/19 07:13:01;;;;;;;28.77;18.70;;;;;;;1.22;95.81;99748.42;1793941;79;25285;-77
2021/01/19 07:15:55;;;;;;;21.60;14.60;;;;;;;1.28;95.71;99743.48;1797564;78;25321;-77
2021/01/19 07:18:45;;;;;;;13.70;9.90;;;;;;;1.34;95.52;99735.48;1800180;78;25314;-78
2021/01/19 07:21:14;;;;;;;13.40;9.80;;;;;;;1.38;95.43;99742.23;1798501;78;25337;-78
2021/01/19 07:24:13;;;;;;;15.03;9.20;;;;;;;1.42;95.38;99740.36;1808297;78;25218;-78
2021/01/19 07:26:41;;;;;;;14.37;8.80;;;;;;;1.46;95.32;99738.06;1793813;80;25278;-78
2021/01/19 07:29:08;;;;;;;18.47;9.43;;;;;;;1.50;95.27;99738.32;1793948;79;25329;-77
2021/01/19 07:31:35;;;;;;;15.57;10.67;;;;;;;1.56;95.22;99738.52;1805370;78;25515;-78
2021/01/19 07:34:04;;;;;;;12.47;9.80;;;;;;;1.60;95.10;99741.41;1821322;77;25137;-79
2021/01/19 07:36:31;;;;;;;15.90;10.63;;;;;;;1.62;95.04;99745.61;1815416;78;25277;-79
2021/01/19 07:38:58;;;;;;;18.47;12.77;;;;;;;1.67;94.99;99742.84;1797774;78;25374;-78
2021/01/19 07:41:30;;;;;;;22.87;16.20;;;;;;;1.72;94.94;99746.11;1723241;81;25352;-79
2021/01/19 07:43:56;;;;;;;28.73;15.07;;;;;;;1.77;94.72;99750.66;1733723;82;25343;-79
2021/01/19 07:46:29;;;;;;;27.10;17.50;;;;;;;1.76;94.58;99747.69;1708661;81;25689;-78
2021/01/19 07:49:07;;;;;;;26.73;16.83;;;;;;;1.79;94.36;99750.17;1722432;83;25900;-79
2021/01/19 07:51:45;;;;;;;40.27;26.97;;;;;;;1.79;94.36;99750.59;1744694;81;25260;-78
2021/01/19 07:54:26;;;;;;;24.20;16.60;;;;;;;1.84;94.42;99748.23;1754250;80;25215;-78
2021/01/19 07:56:53;;;;;;;24.00;15.83;;;;;;;1.92;94.39;99749.67;1763468;81;25273;-78
2021/01/19 07:59:21;;;;;;;20.63;14.73;;;;;;;2.00;94.30;99743.26;1763398;80;25286;-78
2021/01/19 08:01:58;;;;;;;20.27;13.60;;;;;;;2.09;94.27;99742.03;1763303;81;25208;-78
2021/01/19 08:04:31;;;;;;;17.83;13.30;;;;;;;2.17;94.21;99745.16;1763368;80;25368;-78
2021/01/19 08:07:19;;;;;;;21.17;15.23;;;;;;;2.34;94.04;99741.87;1835934;76;26970;-78
2021/01/19 08:09:46;;;;;;;19.10;13.47;;;;;;;2.39;93.83;99742.98;1817275;78;25180;-78
2021/01/19 08:14:51;;;;;;;21.30;14.57;;;;;;;2.54;93.44;99737.13;1889391;75;26593;-77
2021/01/19 08:17:22;;;;;;;17.57;13.33;;;;;;;2.57;92.87;99734.41;1860069;77;25608;-78
2021/01/19 08:19:49;;;;;;;17.27;12.67;;;;;;;2.63;92.21;99741.55;1858640;77;25212;-79
2021/01/19 08:22:22;;;;;;;18.23;12.50;;;;;;;2.64;91.69;99732.86;1794212;78;25746;-78
2021/01/19 08:24:59;;;;;;;16.53;12.53;;;;;;;2.60;91.77;99736.88;1826475;78;25247;-80
2021/01/19 08:27:19;;;;;;;15.23;12.13;;;;;;;2.64;91.47;99739.34;1841902;77;25612;-79
2021/01/19 08:29:46;;;;;;;16.27;12.67;;;;;;;2.66;91.21;99740.95;1829470;77;25255;-79
2021/01/19 08:32:12;;;;;;;14.67;11.67;;;;;;;2.71;91.39;99735.56;1837088;77;25215;-80
2021/01/19 08:34:39;;;;;;;19.63;13.03;;;;;;;2.79;91.73;99737.38;1855509;77;25332;-79
2021/01/19 08:37:06;;;;;;;19.23;11.93;;;;;;;2.91;91.45;99732.93;1860156;77;25262;-80
2021/01/19 08:39:36;;;;;;;24.23;13.50;;;;;;;3.03;90.89;99735.90;1795016;77;25265;-80
2021/01/19 08:42:03;;;;;;;31.70;19.43;;;;;;;3.09;90.25;99733.87;1846554;77;25762;-80
2021/01/19 08:44:30;;;;;;;51.97;27.40;;;;;;;3.08;89.92;99738.67;1827531;77;25107;-80
2021/01/19 08:46:57;;;;;;;17.70;12.00;;;;;;;3.12;89.79;99736.80;1819295;77;25144;-81
2021/01/19 08:49:24;;;;;;;36.40;22.33;;;;;;;3.20;89.35;99733.41;1851503;77;25310;-81
2021/01/19 08:51:52;;;;;;;33.80;24.20;;;;;;;3.27;89.15;99723.57;1856408;77;25267;-81
2021/01/19 08:54:20;;;;;;;27.20;18.93;;;;;;;3.37;88.80;99727.86;1848103;77;25189;-81
2021/01/19 08:56:47;;;;;;;51.13;33.80;;;;;;;3.42;89.21;99733.25;1854531;77;25572;-81
2021/01/19 08:59:15;;;;;;;52.63;33.73;;;;;;;3.54;89.35;99729.23;1786218;80;25312;-81
2021/01/19 09:01:54;;;;;;;178.87;103.40;;;;;;;3.65;88.65;99724.38;1758852;80;25615;-81
2021/01/19 09:04:24;;;;;;;65.70;39.00;;;;;;;3.70;88.53;99728.91;1786533;79;25191;-79
2021/01/19 09:06:51;;;;;;;164.40;89.27;;;;;;;3.75;88.00;99726.06;1755447;80;25188;-80
2021/01/19 09:09:22;;;;;;;179.07;98.03;;;;;;;3.79;87.86;99726.31;1754673;80;25409;-81
2021/01/19 09:11:51;;;;;;;145.43;81.17;;;;;;;3.81;87.78;99721.04;1782659;80;25774;-79
2021/01/19 09:14:23;;;;;;;75.47;44.37;;;;;;;3.89;87.13;99722.35;1759044;81;25195;-80
2021/01/19 09:16:48;;;;;;;57.67;33.20;;;;;;;3.92;87.05;99720.04;1776706;80;25232;-79
2021/01/19 09:19:14;;;;;;;29.30;20.10;;;;;;;3.95;87.23;99710.79;1792257;80;25814;-79
2021/01/19 09:21:41;;;;;;;19.53;15.23;;;;;;;4.05;86.94;99709.41;1760988;80;25224;-79
2021/01/19 09:24:17;;;;;;;22.87;18.27;;;;;;;4.11;86.27;99706.16;1757583;81;25785;-79
2021/01/19 09:27:00;;;;;;;33.03;21.17;;;;;;;4.19;86.61;99702.25;1807896;77;27431;-79
2021/01/19 09:29:31;;;;;;;43.00;24.23;;;;;;;4.21;85.86;99704.30;1780093;79;25228;-79
2021/01/19 09:32:02;;;;;;;35.53;20.77;;;;;;;4.28;85.15;99703.54;1775262;79;25251;-79
2021/01/19 09:34:30;;;;;;;17.90;13.03;;;;;;;4.26;85.67;99701.48;1762303;80;25377;-79
2021/01/19 09:36:57;;;;;;;33.97;21.17;;;;;;;4.35;84.55;99690.58;1786725;79;25679;-80
2021/01/19 09:39:28;;;;;;;18.93;14.87;;;;;;;4.34;84.99;99690.22;1783361;79;25699;-80
2021/01/19 09:42:00;;;;;;;20.37;14.83;;;;;;;4.39;84.56;99696.03;1774564;80;25289;-80
2021/01/19 09:44:30;;;;;;;22.20;16.03;;;;;;;4.38;84.92;99682.62;1781594;79;25411;-79
2021/01/19 09:47:04;;;;;;;21.57;15.63;;;;;;;4.45;85.26;99681.37;1770947;80;25304;-80
2021/01/19 09:49:41;;;;;;;20.30;14.90;;;;;;;4.63;84.69;99670.47;1844120;76;26800;-80
2021/01/19 09:52:12;;;;;;;23.03;16.07;;;;;;;4.65;84.82;99669.92;1768382;80;25287;-79
2021/01/19 09:54:39;;;;;;;18.03;14.03;;;;;;;4.71;84.17;99662.27;1719816;81;25360;-78
2021/01/19 09:57:07;;;;;;;26.53;19.17;;;;;;;4.76;83.68;99661.55;1711664;83;25274;-79
2021/01/19 09:59:35;;;;;;;26.30;18.63;;;;;;;4.81;83.82;99652.20;1720063;83;25371;-79
2021/01/19 10:02:02;;;;;;;18.47;13.97;;;;;;;4.89;83.91;99650.47;1721379;82;25843;-79
2021/01/19 10:04:29;;;;;;;26.30;17.83;;;;;;;4.98;82.64;99658.64;1726491;81;25226;-80
2021/01/19 10:07:08;;;;;;;19.33;15.27;;;;;;;4.92;82.60;99651.61;1721557;83;25693;-79
2021/01/19 10:09:43;;;;;;;20.90;16.47;;;;;;;4.96;80.71;99646.16;1847593;77;27448;-79
2021/01/19 10:12:09;;;;;;;28.87;19.63;;;;;;;4.97;82.21;99653.50;1810411;78;25274;-79
2021/01/19 10:14:39;;;;;;;21.83;15.20;;;;;;;4.96;80.90;99644.85;1824763;78;25856;-79
2021/01/19 10:17:05;;;;;;;23.13;17.77;;;;;;;4.92;80.62;99641.19;1804930;78;25329;-79
2021/01/19 10:19:35;;;;;;;28.53;20.63;;;;;;;4.83;80.85;99636.84;1824797;78;25781;-78
2021/01/19 10:22:07;;;;;;;35.07;23.77;;;;;;;4.91;81.01;99635.14;1792823;78;25666;-79
2021/01/19 10:24:34;;;;;;;28.13;19.00;;;;;;;4.90;80.10;99633.45;1819474;78;25328;-79
2021/01/19 10:27:10;;;;;;;20.93;14.57;;;;;;;4.86;80.62;99629.78;1810582;78;25212;-80
2021/01/19 10:29:40;;;;;;;20.90;15.83;;;;;;;4.92;79.75;99625.55;1824747;78;25306;-80
2021/01/19 10:32:12;;;;;;;18.60;12.90;;;;;;;4.83;80.28;99622.98;1805039;78;25332;-80
2021/01/19 10:34:50;;;;;;;16.13;12.73;;;;;;;4.88;79.37;99616.23;1824828;78;25219;-80
2021/01/19 10:37:18;;;;;;;19.33;13.77;;;;;;;4.87;79.45;99614.53;1792925;78;25235;-81
2021/01/19 10:39:49;;;;;;;18.17;13.60;;;;;;;4.89;78.04;99612.20;1825015;78;25298;-80
2021/01/19 10:42:33;;;;;;;15.00;11.20;;;;;;;4.82;78.83;99601.27;1824754;78;25207;-81
2021/01/19 10:45:03;;;;;;;22.40;15.97;;;;;;;4.88;78.04;99597.98;1823002;78;25207;-82
2021/01/19 10:47:40;;;;;;;18.97;14.50;;;;;;;4.86;78.58;99593.30;1807534;78;25700;-82
2021/01/19 10:50:17;;;;;;;23.07;16.77;;;;;;;4.88;79.25;99589.69;1821756;78;25796;-82
2021/01/19 10:52:57;;;;;;;22.17;16.17;;;;;;;5.01;78.86;99589.84;1808513;78;25303;-82
2021/01/19 10:55:35;;;;;;;24.83;15.53;;;;;;;5.06;78.75;99580.03;1852858;77;26909;-81
2021/01/19 10:58:04;;;;;;;24.43;17.30;;;;;;;4.96;78.30;99577.52;1824905;78;25191;-82
2021/01/19 11:00:33;;;;;;;22.83;17.20;;;;;;;4.96;78.49;99576.22;1811055;78;25276;-82
2021/01/19 11:02:59;;;;;;;25.93;19.10;;;;;;;4.99;77.98;99576.92;1819949;78;25318;-81
2021/01/19 11:05:26;;;;;;;24.40;19.57;;;;;;;4.93;78.52;99569.43;1824812;78;25328;-82
2021/01/19 11:07:57;;;;;;;20.37;15.17;;;;;;;4.99;77.81;99564.33;1782416;78;25347;-82
2021/01/19 11:10:25;;;;;;;20.40;15.73;;;;;;;5.02;77.85;99561.08;1805591;78;25201;-82
2021/01/19 11:12:53;;;;;;;26.67;17.10;;;;;;;5.10;76.56;99561.97;1810300;78;25203;-82
2021/01/19 11:15:21;;;;;;;24.57;16.63;;;;;;;5.09;76.37;99565.48;1761989;80;25652;-83
2021/01/19 11:17:50;;;;;;;32.33;22.33;;;;;;;5.06;76.58;99565.69;1802072;78;25225;-82
2021/01/19 11:20:26;;;;;;;31.67;21.47;;;;;;;5.13;76.86;99556.59;1889377;76;26834;-82
2021/01/19 11:22:53;;;;;;;28.67;20.83;;;;;;;5.09;76.70;99553.76;1860337;77;25241;-82
2021/01/19 11:25:19;;;;;;;21.33;14.80;;;;;;;5.11;76.79;99546.72;1850409;77;25260;-82
2021/01/19 11:27:49;;;;;;;17.73;13.00;;;;;;;5.23;76.87;99540.41;1835456;77;25263;-80
2021/01/19 11:30:16;;;;;;;20.07;14.07;;;;;;;5.31;75.34;99540.81;1836645;77;25183;-83
2021/01/19 11:32:43;;;;;;;23.90;13.50;;;;;;;5.29;74.90;99541.38;1850192;77;25292;-82
2021/01/19 11:35:11;;;;;;;22.93;14.07;;;;;;;5.24;74.68;99534.28;1860384;77;25242;-82
2021/01/19 11:37:37;;;;;;;17.47;12.93;;;;;;;5.14;74.75;99526.97;1845473;76;25312;-82
2021/01/19 11:40:26;;;;;;;16.63;11.90;;;;;;;5.09;74.79;99518.56;1852875;77;25783;-81
2021/01/19 11:42:54;;;;;;;14.93;11.17;;;;;;;5.12;73.95;99518.40;1797913;79;25616;-80
2021/01/19 11:45:21;;;;;;;15.30;11.93;;;;;;;5.10;74.02;99509.83;1793360;79;25671;-81
2021/01/19 11:47:49;;;;;;;18.27;14.03;;;;;;;5.02;73.64;99502.44;1771087;79;25325;-81
2021/01/19 11:50:15;;;;;;;18.07;13.07;;;;;;;5.08;73.37;99500.40;1801228;79;25306;-80
2021/01/19 11:52:42;;;;;;;20.47;14.13;;;;;;;4.91;73.59;99487.89;1793446;79;25191;-82
2021/01/19 11:55:09;;;;;;;20.80;13.07;;;;;;;4.94;74.12;99481.17;1784944;79;25384;-81
2021/01/19 11:57:39;;;;;;;17.07;11.93;;;;;;;4.96;74.51;99481.09;1782511;79;25356;-79